sensor_id;sensor_type;location;lat;lon;timestamp;temperature;humidity
17252;DHT22;8742;51.716;8.790;2024-02-26T00:02:18;4.10;99.90
17252;DHT22;8742;51.716;8.790;2024-02-26T00:04:45;4.10;99.90
17252;DHT22;8742;51.716;8.790;2024-02-26T00:07:12;4.10;99.90
17252;DHT22;8742;51.716;8.790;2024-02-26T00:09:39;4.10;99.90
17252;DHT22;8742;51.716;8.790;2024-02-26T00:12:06;4.10;99.90
17252;DHT22;8742;51.716;8.790;2024-02-26T00:14:33;4.10;99.90
17252;DHT22;8742;51.716;8.790;2024-02-26T00:17:01;4.10;99.90
17252;DHT22;8742;51.716;8.790;2024-02-26T00:19:28;4.10;99.90
17252;DHT22;8742;51.716;8.790;2024-02-26T00:21:55;4.10;99.90
17252;DHT22;8742;51.716;8.790;2024-02-26T00:24:22;4.10;99.90
17252;DHT22;8742;51.716;8.790;2024-02-26T00:26:49;4.10;99.90
17252;DHT22;8742;51.716;8.790;2024-02-26T00:29:18;4.10;99.90
17252;DHT22;8742;51.716;8.790;2024-02-26T00:31:45;4.10;99.90
17252;DHT22;8742;51.716;8.790;2024-02-26T00:34:13;4.10;99.90
17252;DHT22;8742;51.716;8.790;2024-02-26T00:36:40;4.10;99.90
17252;DHT22;8742;51.716;8.790;2024-02-26T00:39:07;4.10;99.90
17252;DHT22;8742;51.716;8.790;2024-02-26T00:41:38;4.00;99.90
17252;DHT22;8742;51.716;8.790;2024-02-26T00:44:05;4.00;99.90
17252;DHT22;8742;51.716;8.790;2024-02-26T00:46:31;4.00;99.90
17252;DHT22;8742;51.716;8.790;2024-02-26T00:48:58;4.00;99.90
17252;DHT22;8742;51.716;8.790;2024-02-26T00:51:27;4.00;99.90
17252;DHT22;8742;51.716;8.790;2024-02-26T00:53:54;4.10;99.90
17252;DHT22;8742;51.716;8.790;2024-02-26T00:56:21;4.10;99.90
17252;DHT22;8742;51.716;8.790;2024-02-26T00:58:48;4.10;99.90
17252;DHT22;8742;51.716;8.790;2024-02-26T01:01:15;4.10;99.90
17252;DHT22;8742;51.716;8.790;2024-02-26T01:03:42;4.10;99.90
17252;DHT22;8742;51.716;8.790;2024-02-26T01:06:09;4.10;99.90
17252;DHT22;8742;51.716;8.790;2024-02-26T01:08:37;4.10;99.90
17252;DHT22;8742;51.716;8.790;2024-02-26T01:11:04;4.20;99.90
17252;DHT22;8742;51.716;8.790;2024-02-26T01:13:31;4.20;99.90
17252;DHT22;8742;51.716;8.790;2024-02-26T01:15:58;4.20;99.90
17252;DHT22;8742;51.716;8.790;2024-02-26T01:18:26;4.30;99.90
17252;DHT22;8742;51.716;8.790;2024-02-26T01:20:53;4.30;99.90
17252;DHT22;8742;51.716;8.790;2024-02-26T01:23:20;4.30;99.90
17252;DHT22;8742;51.716;8.790;2024-02-26T01:25:48;4.40;99.90
17252;DHT22;8742;51.716;8.790;2024-02-26T01:28:16;4.50;99.90
17252;DHT22;8742;51.716;8.790;2024-02-26T01:30:43;4.60;99.90
17252;DHT22;8742;51.716;8.790;2024-02-26T01:33:10;4.60;99.90
17252;DHT22;8742;51.716;8.790;2024-02-26T01:35:37;4.70;99.90
17252;DHT22;8742;51.716;8.790;2024-02-26T01:38:05;4.80;99.90
17252;DHT22;8742;51.716;8.790;2024-02-26T01:40:32;4.80;99.90
17252;DHT22;8742;51.716;8.790;2024-02-26T01:43:01;4.90;99.90
17252;DHT22;8742;51.716;8.790;2024-02-26T01:45:28;5.00;99.90
17252;DHT22;8742;51.716;8.790;2024-02-26T01:47:55;5.10;99.90
17252;DHT22;8742;51.716;8.790;2024-02-26T01:50:23;5.10;99.90
17252;DHT22;8742;51.716;8.790;2024-02-26T01:52:51;5.20;99.90
17252;DHT22;8742;51.716;8.790;2024-02-26T01:55:20;5.30;99.90
17252;DHT22;8742;51.716;8.790;2024-02-26T01:57:49;5.30;99.90
17252;DHT22;8742;51.716;8.790;2024-02-26T02:00:19;5.40;99.90
17252;DHT22;8742;51.716;8.790;2024-02-26T02:02:46;5.40;99.90
17252;DHT22;8742;51.716;8.790;2024-02-26T02:05:15;5.40;99.90
17252;DHT22;8742;51.716;8.790;2024-02-26T02:07:43;5.50;99.90
17252;DHT22;8742;51.716;8.790;2024-02-26T02:10:10;5.50;99.90
17252;DHT22;8742;51.716;8.790;2024-02-26T02:12:37;5.50;99.90
17252;DHT22;8742;51.716;8.790;2024-02-26T02:15:06;5.60;99.90
17252;DHT22;8742;51.716;8.790;2024-02-26T02:17:35;5.60;99.90
17252;DHT22;8742;51.716;8.790;2024-02-26T02:20:02;5.60;99.90
17252;DHT22;8742;51.716;8.790;2024-02-26T02:22:30;5.60;99.90
17252;DHT22;8742;51.716;8.790;2024-02-26T02:24:58;5.60;99.90
17252;DHT22;8742;51.716;8.790;2024-02-26T02:27:26;5.70;99.90
17252;DHT22;8742;51.716;8.790;2024-02-26T02:29:54;5.70;99.90
17252;DHT22;8742;51.716;8.790;2024-02-26T02:32:22;5.70;99.90
17252;DHT22;8742;51.716;8.790;2024-02-26T02:34:49;5.70;99.90
17252;DHT22;8742;51.716;8.790;2024-02-26T02:37:16;5.80;99.90
17252;DHT22;8742;51.716;8.790;2024-02-26T02:39:44;5.80;99.90
17252;DHT22;8742;51.716;8.790;2024-02-26T02:42:11;5.80;99.90
17252;DHT22;8742;51.716;8.790;2024-02-26T02:44:38;5.80;99.90
17252;DHT22;8742;51.716;8.790;2024-02-26T02:47:05;5.80;99.90
17252;DHT22;8742;51.716;8.790;2024-02-26T02:49:32;5.90;99.90
17252;DHT22;8742;51.716;8.790;2024-02-26T02:51:59;5.90;99.90
17252;DHT22;8742;51.716;8.790;2024-02-26T02:54:26;5.90;99.90
17252;DHT22;8742;51.716;8.790;2024-02-26T02:56:54;5.90;99.90
17252;DHT22;8742;51.716;8.790;2024-02-26T02:59:21;5.90;99.90
17252;DHT22;8742;51.716;8.790;2024-02-26T03:01:48;5.90;99.90
17252;DHT22;8742;51.716;8.790;2024-02-26T03:04:16;5.90;99.90
17252;DHT22;8742;51.716;8.790;2024-02-26T03:06:43;6.00;99.90
17252;DHT22;8742;51.716;8.790;2024-02-26T03:09:10;6.00;99.90
17252;DHT22;8742;51.716;8.790;2024-02-26T03:11:36;6.00;99.90
17252;DHT22;8742;51.716;8.790;2024-02-26T03:14:05;6.00;99.90
17252;DHT22;8742;51.716;8.790;2024-02-26T03:16:33;6.10;99.90
17252;DHT22;8742;51.716;8.790;2024-02-26T03:19:00;6.10;99.90
17252;DHT22;8742;51.716;8.790;2024-02-26T03:21:28;6.10;99.90
17252;DHT22;8742;51.716;8.790;2024-02-26T03:23:55;6.10;99.90
17252;DHT22;8742;51.716;8.790;2024-02-26T03:26:23;6.10;99.90
17252;DHT22;8742;51.716;8.790;2024-02-26T03:28:50;6.10;99.90
17252;DHT22;8742;51.716;8.790;2024-02-26T03:31:18;6.10;99.90
17252;DHT22;8742;51.716;8.790;2024-02-26T03:33:45;6.10;99.90
17252;DHT22;8742;51.716;8.790;2024-02-26T03:36:12;6.10;99.90
17252;DHT22;8742;51.716;8.790;2024-02-26T03:38:39;6.10;99.90
17252;DHT22;8742;51.716;8.790;2024-02-26T03:41:06;6.10;99.90
17252;DHT22;8742;51.716;8.790;2024-02-26T03:43:34;6.10;99.90
17252;DHT22;8742;51.716;8.790;2024-02-26T03:46:01;6.10;99.90
17252;DHT22;8742;51.716;8.790;2024-02-26T03:48:29;6.10;99.90
17252;DHT22;8742;51.716;8.790;2024-02-26T03:50:56;6.10;99.90
17252;DHT22;8742;51.716;8.790;2024-02-26T03:53:22;6.20;99.90
17252;DHT22;8742;51.716;8.790;2024-02-26T03:55:49;6.10;99.90
17252;DHT22;8742;51.716;8.790;2024-02-26T03:58:17;6.10;99.90
17252;DHT22;8742;51.716;8.790;2024-02-26T04:00:44;6.20;99.90
17252;DHT22;8742;51.716;8.790;2024-02-26T04:03:13;6.20;99.90
17252;DHT22;8742;51.716;8.790;2024-02-26T04:05:41;6.20;99.90
17252;DHT22;8742;51.716;8.790;2024-02-26T04:08:08;6.20;99.90
17252;DHT22;8742;51.716;8.790;2024-02-26T04:10:36;6.20;99.90
17252;DHT22;8742;51.716;8.790;2024-02-26T04:13:04;6.30;99.90
17252;DHT22;8742;51.716;8.790;2024-02-26T04:15:31;6.30;99.90
17252;DHT22;8742;51.716;8.790;2024-02-26T04:17:58;6.30;99.90
17252;DHT22;8742;51.716;8.790;2024-02-26T04:20:25;6.40;99.90
17252;DHT22;8742;51.716;8.790;2024-02-26T04:22:54;6.40;99.90
17252;DHT22;8742;51.716;8.790;2024-02-26T04:25:20;6.40;99.90
17252;DHT22;8742;51.716;8.790;2024-02-26T04:27:47;6.50;99.90
17252;DHT22;8742;51.716;8.790;2024-02-26T04:30:14;6.50;99.90
17252;DHT22;8742;51.716;8.790;2024-02-26T04:32:42;6.50;99.90
17252;DHT22;8742;51.716;8.790;2024-02-26T04:35:10;6.60;99.90
17252;DHT22;8742;51.716;8.790;2024-02-26T04:37:37;6.60;99.90
17252;DHT22;8742;51.716;8.790;2024-02-26T04:40:06;6.60;99.90
17252;DHT22;8742;51.716;8.790;2024-02-26T04:42:33;6.60;99.90
17252;DHT22;8742;51.716;8.790;2024-02-26T04:45:00;6.70;99.90
17252;DHT22;8742;51.716;8.790;2024-02-26T04:47:27;6.70;99.90
17252;DHT22;8742;51.716;8.790;2024-02-26T04:49:54;6.70;99.90
17252;DHT22;8742;51.716;8.790;2024-02-26T04:52:21;6.70;99.90
17252;DHT22;8742;51.716;8.790;2024-02-26T04:54:48;6.60;99.90
17252;DHT22;8742;51.716;8.790;2024-02-26T04:57:16;6.60;99.90
17252;DHT22;8742;51.716;8.790;2024-02-26T04:59:44;6.60;99.90
17252;DHT22;8742;51.716;8.790;2024-02-26T05:02:11;6.60;99.90
17252;DHT22;8742;51.716;8.790;2024-02-26T05:04:38;6.60;99.90
17252;DHT22;8742;51.716;8.790;2024-02-26T05:07:05;6.50;99.90
17252;DHT22;8742;51.716;8.790;2024-02-26T05:09:32;6.50;99.90
17252;DHT22;8742;51.716;8.790;2024-02-26T05:11:59;6.60;99.90
17252;DHT22;8742;51.716;8.790;2024-02-26T05:14:27;6.60;99.90
17252;DHT22;8742;51.716;8.790;2024-02-26T05:16:54;6.50;99.90
17252;DHT22;8742;51.716;8.790;2024-02-26T05:19:21;6.50;99.90
17252;DHT22;8742;51.716;8.790;2024-02-26T05:21:48;6.50;99.90
17252;DHT22;8742;51.716;8.790;2024-02-26T05:24:16;6.50;99.90
17252;DHT22;8742;51.716;8.790;2024-02-26T05:26:43;6.50;99.90
17252;DHT22;8742;51.716;8.790;2024-02-26T05:29:10;6.60;99.90
17252;DHT22;8742;51.716;8.790;2024-02-26T05:31:38;6.60;99.90
17252;DHT22;8742;51.716;8.790;2024-02-26T05:34:05;6.60;99.90
17252;DHT22;8742;51.716;8.790;2024-02-26T05:36:32;6.60;99.90
17252;DHT22;8742;51.716;8.790;2024-02-26T05:38:59;6.70;99.90
17252;DHT22;8742;51.716;8.790;2024-02-26T05:41:26;6.70;99.90
17252;DHT22;8742;51.716;8.790;2024-02-26T05:43:54;6.70;99.90
17252;DHT22;8742;51.716;8.790;2024-02-26T05:46:21;6.80;99.90
17252;DHT22;8742;51.716;8.790;2024-02-26T05:48:51;6.80;99.90
17252;DHT22;8742;51.716;8.790;2024-02-26T05:51:18;6.80;99.90
17252;DHT22;8742;51.716;8.790;2024-02-26T05:53:45;6.80;99.90
17252;DHT22;8742;51.716;8.790;2024-02-26T05:56:12;6.80;99.90
17252;DHT22;8742;51.716;8.790;2024-02-26T05:58:39;6.80;99.90
17252;DHT22;8742;51.716;8.790;2024-02-26T06:01:05;6.80;99.90
17252;DHT22;8742;51.716;8.790;2024-02-26T06:03:32;6.70;99.90
17252;DHT22;8742;51.716;8.790;2024-02-26T06:06:01;6.70;99.90
17252;DHT22;8742;51.716;8.790;2024-02-26T06:08:27;6.70;99.90
17252;DHT22;8742;51.716;8.790;2024-02-26T06:10:54;6.70;99.90
17252;DHT22;8742;51.716;8.790;2024-02-26T06:13:21;6.60;99.90
17252;DHT22;8742;51.716;8.790;2024-02-26T06:15:48;6.60;99.90
17252;DHT22;8742;51.716;8.790;2024-02-26T06:18:17;6.60;99.90
17252;DHT22;8742;51.716;8.790;2024-02-26T06:20:44;6.60;99.90
17252;DHT22;8742;51.716;8.790;2024-02-26T06:23:13;6.50;99.90
17252;DHT22;8742;51.716;8.790;2024-02-26T06:25:40;6.60;99.90
17252;DHT22;8742;51.716;8.790;2024-02-26T06:28:08;6.50;99.90
17252;DHT22;8742;51.716;8.790;2024-02-26T06:30:35;6.50;99.90
17252;DHT22;8742;51.716;8.790;2024-02-26T06:33:01;6.50;99.90
17252;DHT22;8742;51.716;8.790;2024-02-26T06:35:28;6.50;99.90
17252;DHT22;8742;51.716;8.790;2024-02-26T06:37:55;6.60;99.90
17252;DHT22;8742;51.716;8.790;2024-02-26T06:40:23;6.50;99.90
17252;DHT22;8742;51.716;8.790;2024-02-26T06:42:50;6.50;99.90
17252;DHT22;8742;51.716;8.790;2024-02-26T06:45:17;6.50;99.90
17252;DHT22;8742;51.716;8.790;2024-02-26T06:47:45;6.50;99.90
17252;DHT22;8742;51.716;8.790;2024-02-26T06:50:12;6.50;99.90
17252;DHT22;8742;51.716;8.790;2024-02-26T06:52:40;6.50;99.90
17252;DHT22;8742;51.716;8.790;2024-02-26T06:55:07;6.50;99.90
17252;DHT22;8742;51.716;8.790;2024-02-26T06:57:35;6.60;99.90
17252;DHT22;8742;51.716;8.790;2024-02-26T07:00:03;6.50;99.90
17252;DHT22;8742;51.716;8.790;2024-02-26T07:02:30;6.50;99.90
17252;DHT22;8742;51.716;8.790;2024-02-26T07:04:57;6.60;99.90
17252;DHT22;8742;51.716;8.790;2024-02-26T07:07:24;6.50;99.90
17252;DHT22;8742;51.716;8.790;2024-02-26T07:09:51;6.60;99.90
17252;DHT22;8742;51.716;8.790;2024-02-26T07:12:18;6.50;99.90
17252;DHT22;8742;51.716;8.790;2024-02-26T07:14:46;6.60;99.90
17252;DHT22;8742;51.716;8.790;2024-02-26T07:17:13;6.60;99.90
17252;DHT22;8742;51.716;8.790;2024-02-26T07:19:41;6.60;99.90
17252;DHT22;8742;51.716;8.790;2024-02-26T07:22:08;6.60;99.90
17252;DHT22;8742;51.716;8.790;2024-02-26T07:24:35;6.60;99.90
17252;DHT22;8742;51.716;8.790;2024-02-26T07:27:02;6.60;99.90
17252;DHT22;8742;51.716;8.790;2024-02-26T07:29:29;6.60;99.90
17252;DHT22;8742;51.716;8.790;2024-02-26T07:31:58;6.70;99.90
17252;DHT22;8742;51.716;8.790;2024-02-26T07:34:25;6.70;99.90
17252;DHT22;8742;51.716;8.790;2024-02-26T07:36:54;6.70;99.90
17252;DHT22;8742;51.716;8.790;2024-02-26T07:39:21;6.80;99.90
17252;DHT22;8742;51.716;8.790;2024-02-26T07:41:48;6.80;99.90
17252;DHT22;8742;51.716;8.790;2024-02-26T07:44:17;6.80;99.90
17252;DHT22;8742;51.716;8.790;2024-02-26T07:46:44;6.80;99.90
17252;DHT22;8742;51.716;8.790;2024-02-26T07:49:12;6.80;99.90
17252;DHT22;8742;51.716;8.790;2024-02-26T07:51:39;6.90;99.90
17252;DHT22;8742;51.716;8.790;2024-02-26T07:54:06;6.90;99.90
17252;DHT22;8742;51.716;8.790;2024-02-26T07:56:32;7.00;99.90
17252;DHT22;8742;51.716;8.790;2024-02-26T07:58:59;7.00;99.90
17252;DHT22;8742;51.716;8.790;2024-02-26T08:01:26;7.00;99.90
17252;DHT22;8742;51.716;8.790;2024-02-26T08:03:53;7.10;99.90
17252;DHT22;8742;51.716;8.790;2024-02-26T08:06:23;7.10;99.90
17252;DHT22;8742;51.716;8.790;2024-02-26T08:08:50;7.20;99.90
17252;DHT22;8742;51.716;8.790;2024-02-26T08:11:18;7.30;99.90
17252;DHT22;8742;51.716;8.790;2024-02-26T08:13:44;7.30;99.90
17252;DHT22;8742;51.716;8.790;2024-02-26T08:16:11;7.40;99.90
17252;DHT22;8742;51.716;8.790;2024-02-26T08:18:38;7.50;99.90
17252;DHT22;8742;51.716;8.790;2024-02-26T08:21:05;7.50;99.90
17252;DHT22;8742;51.716;8.790;2024-02-26T08:23:35;7.60;99.90
17252;DHT22;8742;51.716;8.790;2024-02-26T08:26:02;7.60;99.90
17252;DHT22;8742;51.716;8.790;2024-02-26T08:28:29;7.70;99.90
17252;DHT22;8742;51.716;8.790;2024-02-26T08:30:56;7.70;99.90
17252;DHT22;8742;51.716;8.790;2024-02-26T08:33:24;7.80;99.90
17252;DHT22;8742;51.716;8.790;2024-02-26T08:35:50;7.90;99.90
17252;DHT22;8742;51.716;8.790;2024-02-26T08:38:17;7.90;99.90
17252;DHT22;8742;51.716;8.790;2024-02-26T08:40:45;8.00;99.90
17252;DHT22;8742;51.716;8.790;2024-02-26T08:43:12;8.10;99.90
17252;DHT22;8742;51.716;8.790;2024-02-26T08:45:39;8.20;99.90
17252;DHT22;8742;51.716;8.790;2024-02-26T08:48:07;8.40;99.90
17252;DHT22;8742;51.716;8.790;2024-02-26T08:50:34;8.50;99.90
17252;DHT22;8742;51.716;8.790;2024-02-26T08:53:00;8.70;99.90
17252;DHT22;8742;51.716;8.790;2024-02-26T08:55:29;8.90;99.90
17252;DHT22;8742;51.716;8.790;2024-02-26T08:57:57;9.00;99.90
17252;DHT22;8742;51.716;8.790;2024-02-26T09:00:24;9.20;99.90
17252;DHT22;8742;51.716;8.790;2024-02-26T09:02:50;9.50;99.90
17252;DHT22;8742;51.716;8.790;2024-02-26T09:05:17;9.70;99.90
17252;DHT22;8742;51.716;8.790;2024-02-26T09:07:44;10.00;99.90
17252;DHT22;8742;51.716;8.790;2024-02-26T09:10:12;10.20;99.90
17252;DHT22;8742;51.716;8.790;2024-02-26T09:12:38;10.50;99.90
17252;DHT22;8742;51.716;8.790;2024-02-26T09:15:08;10.80;99.90
17252;DHT22;8742;51.716;8.790;2024-02-26T09:17:34;11.10;99.90
17252;DHT22;8742;51.716;8.790;2024-02-26T09:20:02;11.40;99.90
17252;DHT22;8742;51.716;8.790;2024-02-26T09:22:31;11.70;99.90
17252;DHT22;8742;51.716;8.790;2024-02-26T09:24:58;11.80;99.90
17252;DHT22;8742;51.716;8.790;2024-02-26T09:27:24;11.90;99.90
17252;DHT22;8742;51.716;8.790;2024-02-26T09:29:51;12.10;99.90
17252;DHT22;8742;51.716;8.790;2024-02-26T09:32:19;12.30;99.90
17252;DHT22;8742;51.716;8.790;2024-02-26T09:34:46;12.40;99.90
17252;DHT22;8742;51.716;8.790;2024-02-26T09:37:13;12.50;99.90
17252;DHT22;8742;51.716;8.790;2024-02-26T09:39:40;12.60;99.90
17252;DHT22;8742;51.716;8.790;2024-02-26T09:42:07;12.80;99.90
17252;DHT22;8742;51.716;8.790;2024-02-26T09:44:39;13.00;99.90
17252;DHT22;8742;51.716;8.790;2024-02-26T09:47:08;13.10;99.90
17252;DHT22;8742;51.716;8.790;2024-02-26T09:49:38;13.10;99.90
17252;DHT22;8742;51.716;8.790;2024-02-26T09:52:06;13.10;99.90
17252;DHT22;8742;51.716;8.790;2024-02-26T09:54:35;13.00;99.90
17252;DHT22;8742;51.716;8.790;2024-02-26T09:57:03;13.00;99.90
17252;DHT22;8742;51.716;8.790;2024-02-26T09:59:36;13.10;99.90
17252;DHT22;8742;51.716;8.790;2024-02-26T10:02:07;13.20;99.90
17252;DHT22;8742;51.716;8.790;2024-02-26T10:04:37;13.20;99.90
17252;DHT22;8742;51.716;8.790;2024-02-26T10:07:04;13.30;99.90
17252;DHT22;8742;51.716;8.790;2024-02-26T10:09:32;13.40;99.90
17252;DHT22;8742;51.716;8.790;2024-02-26T10:11:59;13.50;99.90
17252;DHT22;8742;51.716;8.790;2024-02-26T10:14:26;13.60;99.90
17252;DHT22;8742;51.716;8.790;2024-02-26T10:16:53;13.70;99.90
17252;DHT22;8742;51.716;8.790;2024-02-26T10:19:27;13.60;99.90
17252;DHT22;8742;51.716;8.790;2024-02-26T10:21:58;13.60;99.90
17252;DHT22;8742;51.716;8.790;2024-02-26T10:24:25;13.50;99.90
17252;DHT22;8742;51.716;8.790;2024-02-26T10:26:52;13.30;99.90
17252;DHT22;8742;51.716;8.790;2024-02-26T10:29:19;13.10;99.90
17252;DHT22;8742;51.716;8.790;2024-02-26T10:31:46;12.90;99.90
17252;DHT22;8742;51.716;8.790;2024-02-26T10:34:15;12.80;99.90
17252;DHT22;8742;51.716;8.790;2024-02-26T10:36:42;12.60;99.90
17252;DHT22;8742;51.716;8.790;2024-02-26T10:39:12;12.60;99.90
17252;DHT22;8742;51.716;8.790;2024-02-26T10:41:40;12.60;99.90
17252;DHT22;8742;51.716;8.790;2024-02-26T10:44:09;12.70;99.90
17252;DHT22;8742;51.716;8.790;2024-02-26T10:46:37;12.80;99.90
17252;DHT22;8742;51.716;8.790;2024-02-26T10:49:04;12.90;99.90
17252;DHT22;8742;51.716;8.790;2024-02-26T10:51:34;13.10;99.90
17252;DHT22;8742;51.716;8.790;2024-02-26T10:54:04;13.20;99.90
17252;DHT22;8742;51.716;8.790;2024-02-26T10:56:35;13.10;99.90
17252;DHT22;8742;51.716;8.790;2024-02-26T10:59:07;13.00;99.90
17252;DHT22;8742;51.716;8.790;2024-02-26T11:01:36;12.90;99.90
17252;DHT22;8742;51.716;8.790;2024-02-26T11:04:04;12.80;99.90
17252;DHT22;8742;51.716;8.790;2024-02-26T11:06:31;12.60;99.90
17252;DHT22;8742;51.716;8.790;2024-02-26T11:09:01;12.50;99.90
17252;DHT22;8742;51.716;8.790;2024-02-26T11:11:29;12.30;99.90
17252;DHT22;8742;51.716;8.790;2024-02-26T11:13:59;12.10;99.90
17252;DHT22;8742;51.716;8.790;2024-02-26T11:16:28;11.90;99.90
17252;DHT22;8742;51.716;8.790;2024-02-26T11:18:57;11.80;99.90
17252;DHT22;8742;51.716;8.790;2024-02-26T11:21:24;11.60;99.90
17252;DHT22;8742;51.716;8.790;2024-02-26T11:24:04;11.50;99.90
17252;DHT22;8742;51.716;8.790;2024-02-26T11:26:33;11.40;99.90
17252;DHT22;8742;51.716;8.790;2024-02-26T11:29:02;11.40;99.90
17252;DHT22;8742;51.716;8.790;2024-02-26T11:31:30;11.30;99.90
17252;DHT22;8742;51.716;8.790;2024-02-26T11:33:58;11.30;99.90
17252;DHT22;8742;51.716;8.790;2024-02-26T11:36:25;11.20;99.90
17252;DHT22;8742;51.716;8.790;2024-02-26T11:38:52;11.20;99.90
17252;DHT22;8742;51.716;8.790;2024-02-26T11:41:19;11.10;99.90
17252;DHT22;8742;51.716;8.790;2024-02-26T11:43:53;11.10;99.90
17252;DHT22;8742;51.716;8.790;2024-02-26T11:46:28;11.10;99.90
17252;DHT22;8742;51.716;8.790;2024-02-26T11:48:59;11.10;99.90
17252;DHT22;8742;51.716;8.790;2024-02-26T11:51:27;11.10;99.90
17252;DHT22;8742;51.716;8.790;2024-02-26T11:53:55;11.00;99.90
17252;DHT22;8742;51.716;8.790;2024-02-26T11:56:24;11.00;99.90
17252;DHT22;8742;51.716;8.790;2024-02-26T11:59:00;11.10;99.90
17252;DHT22;8742;51.716;8.790;2024-02-26T12:01:41;11.10;99.90
17252;DHT22;8742;51.716;8.790;2024-02-26T12:04:12;11.10;99.90
17252;DHT22;8742;51.716;8.790;2024-02-26T12:06:45;11.10;99.90
17252;DHT22;8742;51.716;8.790;2024-02-26T12:09:12;11.10;99.90
17252;DHT22;8742;51.716;8.790;2024-02-26T12:11:40;11.20;99.90
17252;DHT22;8742;51.716;8.790;2024-02-26T12:14:08;11.20;99.90
17252;DHT22;8742;51.716;8.790;2024-02-26T12:16:38;11.20;99.90
17252;DHT22;8742;51.716;8.790;2024-02-26T12:19:06;11.30;99.90
17252;DHT22;8742;51.716;8.790;2024-02-26T12:21:34;11.30;99.90
17252;DHT22;8742;51.716;8.790;2024-02-26T12:24:11;11.30;99.90
17252;DHT22;8742;51.716;8.790;2024-02-26T12:26:39;11.30;99.90
17252;DHT22;8742;51.716;8.790;2024-02-26T12:29:06;11.30;99.90
17252;DHT22;8742;51.716;8.790;2024-02-26T12:31:33;11.30;99.90
17252;DHT22;8742;51.716;8.790;2024-02-26T12:34:04;11.30;99.90
17252;DHT22;8742;51.716;8.790;2024-02-26T12:36:31;11.20;99.90
17252;DHT22;8742;51.716;8.790;2024-02-26T12:39:00;11.20;99.90
17252;DHT22;8742;51.716;8.790;2024-02-26T12:41:27;11.10;99.90
17252;DHT22;8742;51.716;8.790;2024-02-26T12:43:55;11.10;99.90
17252;DHT22;8742;51.716;8.790;2024-02-26T12:46:23;11.10;99.90
17252;DHT22;8742;51.716;8.790;2024-02-26T12:48:49;11.10;99.90
17252;DHT22;8742;51.716;8.790;2024-02-26T12:51:18;11.10;99.90
17252;DHT22;8742;51.716;8.790;2024-02-26T12:53:47;11.10;99.90
17252;DHT22;8742;51.716;8.790;2024-02-26T12:56:16;11.10;99.90
17252;DHT22;8742;51.716;8.790;2024-02-26T12:58:43;11.10;99.90
17252;DHT22;8742;51.716;8.790;2024-02-26T13:01:14;11.10;99.90
17252;DHT22;8742;51.716;8.790;2024-02-26T13:03:42;11.10;99.90
17252;DHT22;8742;51.716;8.790;2024-02-26T13:06:10;11.10;99.90
17252;DHT22;8742;51.716;8.790;2024-02-26T13:08:38;11.10;99.90
17252;DHT22;8742;51.716;8.790;2024-02-26T13:11:06;11.10;99.90
17252;DHT22;8742;51.716;8.790;2024-02-26T13:13:33;11.10;99.90
17252;DHT22;8742;51.716;8.790;2024-02-26T13:16:04;11.00;99.90
17252;DHT22;8742;51.716;8.790;2024-02-26T13:18:33;10.90;99.90
17252;DHT22;8742;51.716;8.790;2024-02-26T13:21:09;10.90;99.90
17252;DHT22;8742;51.716;8.790;2024-02-26T13:23:38;10.80;99.90
17252;DHT22;8742;51.716;8.790;2024-02-26T13:26:06;10.80;99.90
17252;DHT22;8742;51.716;8.790;2024-02-26T13:28:33;10.80;99.90
17252;DHT22;8742;51.716;8.790;2024-02-26T13:31:01;10.70;99.90
17252;DHT22;8742;51.716;8.790;2024-02-26T13:33:30;10.70;99.90
17252;DHT22;8742;51.716;8.790;2024-02-26T13:35:57;10.60;99.90
17252;DHT22;8742;51.716;8.790;2024-02-26T13:38:25;10.50;99.90
17252;DHT22;8742;51.716;8.790;2024-02-26T13:40:54;10.40;99.90
17252;DHT22;8742;51.716;8.790;2024-02-26T13:43:21;10.40;99.90
17252;DHT22;8742;51.716;8.790;2024-02-26T13:45:47;10.30;99.90
17252;DHT22;8742;51.716;8.790;2024-02-26T13:48:14;10.30;99.90
17252;DHT22;8742;51.716;8.790;2024-02-26T13:50:42;10.30;99.90
17252;DHT22;8742;51.716;8.790;2024-02-26T13:53:10;10.30;99.90
17252;DHT22;8742;51.716;8.790;2024-02-26T13:55:37;10.20;99.90
17252;DHT22;8742;51.716;8.790;2024-02-26T13:58:06;10.30;99.90
17252;DHT22;8742;51.716;8.790;2024-02-26T14:00:33;10.30;99.90
17252;DHT22;8742;51.716;8.790;2024-02-26T14:03:00;10.30;99.90
17252;DHT22;8742;51.716;8.790;2024-02-26T14:05:27;10.30;99.90
17252;DHT22;8742;51.716;8.790;2024-02-26T14:07:55;10.30;99.90
17252;DHT22;8742;51.716;8.790;2024-02-26T14:10:22;10.30;99.90
17252;DHT22;8742;51.716;8.790;2024-02-26T14:12:48;10.30;99.90
17252;DHT22;8742;51.716;8.790;2024-02-26T14:15:17;10.30;99.90
17252;DHT22;8742;51.716;8.790;2024-02-26T14:17:44;10.30;99.90
17252;DHT22;8742;51.716;8.790;2024-02-26T14:20:11;10.20;99.90
17252;DHT22;8742;51.716;8.790;2024-02-26T14:22:38;10.20;99.90
17252;DHT22;8742;51.716;8.790;2024-02-26T14:25:05;10.20;99.90
17252;DHT22;8742;51.716;8.790;2024-02-26T14:27:34;10.20;99.90
17252;DHT22;8742;51.716;8.790;2024-02-26T14:30:01;10.20;99.90
17252;DHT22;8742;51.716;8.790;2024-02-26T14:32:30;10.20;99.90
17252;DHT22;8742;51.716;8.790;2024-02-26T14:35:00;10.20;99.90
17252;DHT22;8742;51.716;8.790;2024-02-26T14:37:28;10.10;99.90
17252;DHT22;8742;51.716;8.790;2024-02-26T14:39:55;10.10;99.90
17252;DHT22;8742;51.716;8.790;2024-02-26T14:42:22;10.00;99.90
17252;DHT22;8742;51.716;8.790;2024-02-26T14:44:50;10.00;99.90
17252;DHT22;8742;51.716;8.790;2024-02-26T14:47:17;10.00;99.90
17252;DHT22;8742;51.716;8.790;2024-02-26T14:49:45;9.90;99.90
17252;DHT22;8742;51.716;8.790;2024-02-26T14:52:13;9.90;99.90
17252;DHT22;8742;51.716;8.790;2024-02-26T14:54:40;9.90;99.90
17252;DHT22;8742;51.716;8.790;2024-02-26T14:57:07;9.90;99.90
17252;DHT22;8742;51.716;8.790;2024-02-26T14:59:34;9.90;99.90
17252;DHT22;8742;51.716;8.790;2024-02-26T15:02:02;9.90;99.90
17252;DHT22;8742;51.716;8.790;2024-02-26T15:04:29;9.80;99.90
17252;DHT22;8742;51.716;8.790;2024-02-26T15:06:57;9.80;99.90
17252;DHT22;8742;51.716;8.790;2024-02-26T15:09:24;9.80;99.90
17252;DHT22;8742;51.716;8.790;2024-02-26T15:11:50;9.80;99.90
17252;DHT22;8742;51.716;8.790;2024-02-26T15:14:17;9.70;99.90
17252;DHT22;8742;51.716;8.790;2024-02-26T15:16:44;9.70;99.90
17252;DHT22;8742;51.716;8.790;2024-02-26T15:19:11;9.60;99.90
17252;DHT22;8742;51.716;8.790;2024-02-26T15:21:42;9.60;99.90
17252;DHT22;8742;51.716;8.790;2024-02-26T15:24:11;9.60;99.90
17252;DHT22;8742;51.716;8.790;2024-02-26T15:26:38;9.50;99.90
17252;DHT22;8742;51.716;8.790;2024-02-26T15:29:06;9.50;99.90
17252;DHT22;8742;51.716;8.790;2024-02-26T15:31:34;9.50;99.90
17252;DHT22;8742;51.716;8.790;2024-02-26T15:34:01;9.50;99.90
17252;DHT22;8742;51.716;8.790;2024-02-26T15:36:28;9.50;99.90
17252;DHT22;8742;51.716;8.790;2024-02-26T15:38:56;9.50;99.90
17252;DHT22;8742;51.716;8.790;2024-02-26T15:41:25;9.40;99.90
17252;DHT22;8742;51.716;8.790;2024-02-26T15:43:51;9.40;99.90
17252;DHT22;8742;51.716;8.790;2024-02-26T15:46:18;9.40;99.90
17252;DHT22;8742;51.716;8.790;2024-02-26T15:48:45;9.40;99.90
17252;DHT22;8742;51.716;8.790;2024-02-26T15:51:18;9.40;99.90
17252;DHT22;8742;51.716;8.790;2024-02-26T15:53:46;9.40;99.90
17252;DHT22;8742;51.716;8.790;2024-02-26T15:56:13;9.40;99.90
17252;DHT22;8742;51.716;8.790;2024-02-26T15:58:42;9.40;99.90
17252;DHT22;8742;51.716;8.790;2024-02-26T16:01:08;9.40;99.90